< < Back
Terminal Aerodrome Forecast


Current Version              Previous Versions:   1  2  3  4  5  6  7  8  9  

Terminal Aerodrome Forecast

776
FTUS44 KMRX 231741
TAFTYS
TAF
KTYS 231741Z 2318/2418 06008KT P6SM SCT025 OVC070 WS020/15050KT
      TEMPO 2318/2322 3SM -RA BR BKN025
     FM232200 18009KT 3SM -RA BR SCT015 OVC035 WS020/17050KT
     FM240200 21012KT 5SM -RA BR BKN025
     FM240700 22014KT P6SM BKN025
     FM241300 23015G25KT P6SM BKN040=



Latest METAR

828
SAUS80 KWBC 232200
MTRTYS
METAR KTYS 232153Z 04003KT 10SM SCT055 OVC075 12/12 A2962 RMK AO2 RAE43
SLP027 P0003 T01220117


USA.gov is the U.S. government's official web portal to all federal, state and local government web resources and services.